• Join FlightAware (Why Join?)
  • Login
  • US Flag 
Rudolph Flight #1: Arrived! 
05:18PM EST


 

Airport Tracker/Info


-or-


 

Live Flight TrackerFlight Track Log ✈ N30VP ✈ 07-Feb-2014 ✈ KPBI - TIST / STT

Flight Track Log - Related Links

Times and Time Zones

All times are in EST time to prevent confusion due to time zone crossing. See the N30VP flight status page for this flight to view local times or setup timezone preferences in your user account.

Time Position Orientation Groundspeed Altitude Reporting Facility
EST Latitude Longitude Course Direction KTS MPH feet Rate Location/Type
11:05AM 26.6828 -79.8467 90° East 282 325 7,000  Level Miami Center
11:06AM 26.6781 -79.7653 94° East 282 325 7,000 180 Level Miami Center
11:07AM 26.6781 -79.6675 90° East 297 342 7,400 1,740 Climbing Miami Center
11:08AM 26.6667 -79.2890 90° East  Level FlightAware Approximate
11:08AM 26.6794 -79.5839 89° East 291 335 10,500  Level Miami Center
11:09AM 26.6667 -79.1554 90° East  Level FlightAware Approximate
11:09AM 26.6794 -79.4722 90° East 316 364 13,500  Level Miami Center
11:10AM 26.6769 -79.3769 92° East 331 381 15,000 1,020 Climbing Miami Center
11:11AM 26.6769 -79.2606 90° East 331 381 15,600 1,500 Climbing Miami Center
11:12AM 26.6744 -79.1561 92° East 347 399 18,100 2,460 Climbing Miami Center
11:13AM 26.6511 -79.0464 103° East 357 411 20,600 2,100 Climbing Miami Center
11:14AM 26.6192 -78.9364 108° East 362 417 22,400 1,200 Climbing Miami Center
11:15AM 26.5917 -78.8175 104° East 377 434 23,000 1,080 Climbing Miami Center
11:16AM 26.5533 -78.6936 109° East 401 461 24,600 1,680 Climbing Miami Center
11:18AM 26.4267 -78.4575 121° Southeast 421 484 28,200 1,620 Climbing Miami Center
11:19AM 26.3653 -78.3431 121° Southeast 421 484 29,600 1,320 Climbing Miami Center
11:20AM 26.2975 -78.2308 124° Southeast 421 484 30,900 1,260 Climbing Miami Center
11:21AM 26.2317 -78.1167 123° Southeast 431 496 32,200 1,020 Climbing Miami Center
11:22AM 26.1636 -78.0047 124° Southeast 431 496 33,000 480 Climbing Miami Center
11:23AM 26.0914 -77.8814 123° Southeast 454 522 33,200 600 Climbing Miami Center
11:24AM 26.0189 -77.7606 124° Southeast 465 535 34,300 1,080 Climbing Miami Center
11:25AM 25.9464 -77.6397 124° Southeast 465 535 35,400 900 Climbing Miami Center
11:26AM 25.8822 -77.5333 124° Southeast 465 535 36,200 780 Climbing Miami Center
11:27AM 25.8056 -77.4036 123° Southeast 465 535 37,000 360 Climbing Miami Center
11:28AM 25.7328 -77.2808 123° Southeast 465 535 37,000  Level Miami Center
11:29AM 25.6558 -77.1514 123° Southeast 476 548 37,000  Level Miami Center
11:30AM 25.5806 -77.0269 124° Southeast 489 563 37,000  Level Miami Center
11:31AM 25.5033 -76.9003 124° Southeast 489 563 37,000  Level Miami Center
11:32AM 25.4261 -76.7758 124° Southeast 494 568 37,000  Level Miami Center
11:33AM 25.3486 -76.6450 123° Southeast 494 568 37,000  Level Miami Center
11:34AM 25.2711 -76.5186 124° Southeast 494 568 37,000  Level Miami Center
11:35AM 25.1956 -76.3947 124° Southeast 489 563 37,000  Level Miami Center
11:36AM 25.1178 -76.2667 124° Southeast 489 563 37,000  Level Miami Center
11:37AM 25.0461 -76.1431 123° Southeast 494 568 37,000  Level Miami Center
11:38AM 24.9681 -76.0175 124° Southeast 488 562 37,000  Level Miami Center
11:39AM 24.8878 -75.8942 126° Southeast 488 562 37,000  Level Miami Center
11:40AM 24.8097 -75.7667 124° Southeast 488 562 37,000  Level Miami Center
11:41AM 24.7356 -75.6439 124° Southeast 488 562 37,000  Level Miami Center
11:42AM 24.6572 -75.5189 125° Southeast 488 562 37,000  Level Miami Center
11:43AM 24.5808 -75.3964 124° Southeast 488 562 37,000  Level Miami Center
11:44AM 24.5042 -75.2692 123° Southeast 488 562 37,000  Level Miami Center
11:45AM 24.4256 -75.1469 125° Southeast 488 562 37,000  Level Miami Center
11:46AM 24.3553 -75.0361 125° Southeast 488 562 37,000  Level Miami Center
11:47AM 24.2783 -74.9119 124° Southeast 488 562 37,000  Level Miami Center
11:48AM 24.1994 -74.7881 125° Southeast 488 562 37,000  Level Miami Center
11:49AM 24.1225 -74.6664 125° Southeast 488 562 37,000  Level Miami Center
11:50AM 24.0433 -74.5447 125° Southeast 488 562 37,000  Level Miami Center
11:51AM 23.9639 -74.4214 125° Southeast 488 562 37,000  Level Miami Center
11:52AM 23.8889 -74.3022 125° Southeast 488 562 37,000  Level Miami Center
11:53AM 23.8094 -74.1789 125° Southeast 488 562 37,000  Level Miami Center
11:54AM 23.7300 -74.0603 126° Southeast 488 562 37,000  Level Miami Center
11:55AM 23.6522 -73.9353 124° Southeast 488 562 37,000  Level Miami Center
11:56AM 23.5747 -73.8169 126° Southeast 488 562 37,000  Level Miami Center
11:57AM 23.4969 -73.6964 125° Southeast 488 562 37,000  Level Miami Center
11:58AM 23.4192 -73.5761 125° Southeast 488 562 37,000  Level Miami Center
11:59AM 23.3392 -73.4558 126° Southeast 493 567 37,000  Level Miami Center
12:00PM 23.2656 -73.3336 123° Southeast 493 567 37,000  Level Miami Center
12:01PM 23.1833 -73.2161 127° Southeast 488 562 37,000  Level Miami Center
12:02PM 23.1072 -73.0942 124° Southeast 488 562 37,000  Level Miami Center
12:03PM 23.0225 -72.9658 126° Southeast 488 562 37,000  Level Miami Center
12:04PM 22.9419 -72.8464 126° Southeast 488 562 37,000  Level Miami Center
12:05PM 22.8636 -72.7272 125° Southeast 494 568 37,000  Level Miami Center
12:06PM 22.7831 -72.6036 125° Southeast 494 568 37,000  Level Miami Center
12:07PM 22.7044 -72.4847 126° Southeast 488 562 37,000  Level Miami Center
12:08PM 22.6236 -72.3639 126° Southeast 488 562 37,000  Level Miami Center
12:09PM 22.5489 -72.2450 124° Southeast 488 562 37,000  Level Miami Center
12:10PM 22.4658 -72.1244 127° Southeast 488 562 37,000  Level Miami Center
12:11PM 22.3869 -72.0039 125° Southeast 488 562 37,000  Level Miami Center
12:12PM 22.3081 -71.8856 126° Southeast 488 562 37,000  Level Miami Center
12:13PM 22.2269 -71.7653 126° Southeast 488 562 37,000  Level Miami Center
12:14PM 22.1456 -71.6431 126° Southeast 488 562 37,000  Level Miami Center
12:15PM 22.0683 -71.5253 125° Southeast 488 562 37,000  Level Miami Center
12:16PM 21.9869 -71.4056 126° Southeast 488 562 37,000  Level Miami Center
12:17PM 21.9075 -71.2858 126° Southeast 488 562 37,000  Level Miami Center
12:18PM 21.8281 -71.1686 126° Southeast 488 562 37,000  Level Miami Center
12:19PM 21.7464 -71.0492 126° Southeast 488 562 37,000  Level Miami Center
12:20PM 21.6667 -70.9278 125° Southeast 488 562 37,000  Level Miami Center
12:21PM 21.5847 -70.8086 126° Southeast 488 562 37,000  Level Miami Center
12:22PM 21.5119 -70.7050 127° Southeast 488 562 37,000  Level Miami Center
12:23PM 21.4319 -70.5861 126° Southeast 488 562 37,000  Level Miami Center
12:24PM 21.3519 -70.4697 126° Southeast 488 562 37,000  Level Miami Center
12:25PM 21.2719 -70.3514 126° Southeast 488 562 37,000  Level Miami Center
12:26PM 21.1900 -70.2353 127° Southeast 488 562 37,000  Level Miami Center
12:27PM 21.1097 -70.1169 126° Southeast 488 562 37,000  Level Miami Center
12:28PM 21.0275 -70.0011 127° Southeast 488 562 37,000  Level Miami Center
12:29PM 20.9494 -69.8853 126° Southeast 488 562 37,000  Level Miami Center
12:30PM 20.8669 -69.7678 127° Southeast 488 562 37,000  Level Miami Center
12:31PM 20.7867 -69.6522 127° Southeast 488 562 37,000  Level Miami Center
12:32PM 20.7061 -69.5347 126° Southeast 488 562 37,000  Level Miami Center
12:33PM 20.6256 -69.4194 127° Southeast 488 562 37,000  Level Miami Center
12:34PM 20.5450 -69.3044 127° Southeast 488 562 37,000  Level Miami Center
12:35PM 20.4664 -69.1872 126° Southeast 488 562 37,000  Level Miami Center
12:36PM 20.3836 -69.0706 127° Southeast 488 562 37,000  Level Miami Center
12:37PM 20.3069 -68.9514 124° Southeast 488 562 37,000  Level Miami Center
12:38PM 20.2506 -68.8267 116° Southeast 474 545 37,000  Level Miami Center
12:39PM 20.1958 -68.6953 114° Southeast 474 545 37,000  Level Miami Center
12:40PM 20.1328 -68.5667 118° Southeast 480 552 37,000  Level Miami Center
12:41PM 20.0822 -68.4356 112° Southeast 480 552 37,000  Level Miami Center
12:42PM 20.0211 -68.3094 117° Southeast 480 552 37,000  Level Miami Center
12:43PM 19.9619 -68.1789 116° Southeast 480 552 37,000  Level Miami Center
12:44PM 19.9069 -68.0481 114° Southeast 480 552 37,000  Level Miami Center
12:45PM 19.8478 -67.9222 117° Southeast 480 552 37,000  Level Miami Center
12:46PM 19.7944 -67.7917 113° Southeast 480 552 37,000  Level Miami Center
12:47PM 19.7372 -67.6636 115° Southeast 475 547 37,000  Level Miami Center
12:48PM 19.6667 -67.5333 120° Southeast 480 552 37,000  Level San Juan Center
12:49PM 19.6167 -67.4167 114° Southeast 470 541 37,000 -600 Level San Juan Center
12:50PM 19.5500 -67.2833 118° Southeast 480 552 35,800 -1,260 Descending San Juan Center
12:51PM 19.5000 -67.1500 112° Southeast 470 541 34,500 -1,500 Descending San Juan Center
12:52PM 19.4333 -67.0333 121° Southeast 460 529 32,900 -1,800 Descending San Juan Center
12:53PM 19.3833 -66.9167 114° Southeast 450 518 31,000 -1,020 Descending San Juan Center
12:54PM 19.3333 -66.8000 114° Southeast 440 506 30,900 -660 Descending San Juan Center
12:55PM 19.2833 -66.6833 114° Southeast 450 518 29,700 -1,440 Descending San Juan Center
12:56PM 19.2167 -66.5667 121° Southeast 450 518 28,100 -1,560 Descending San Juan Center
12:57PM 19.1667 -66.4500 114° Southeast 450 518 26,600 -1,500 Descending San Juan Center
12:58PM 19.1167 -66.3167 112° Southeast 440 506 25,200 -1,440 Descending San Juan Center
12:59PM 19.0500 -66.2000 121° Southeast 420 483 23,800 -1,380 Descending San Juan Center
01:00PM 19.0000 -66.0833 114° Southeast 410 472 22,500 -1,440 Descending San Juan Center
01:02PM 18.9167 -65.8833 114° Southeast 380 437 19,600 -1,620 Descending San Juan Center
01:03PM 18.8667 -65.7667 114° Southeast 390 449 17,700 -1,740 Descending San Juan Center
01:04PM 18.8167 -65.6833 122° Southeast 370 426 16,200 -1,620 Descending San Juan Center
01:05PM 18.7667 -65.5833 118° Southeast 350 403 14,500 -1,680 Descending San Juan Center
01:06PM 18.7333 -65.5000 113° Southeast 350 403 12,900 -1,620 Descending San Juan Center
01:07PM 18.6833 -65.4000 118° Southeast 340 391 11,300 -1,380 Descending San Juan Center
01:08PM 18.6333 -65.3167 122° Southeast 330 380 10,200 -1,500 Descending San Juan Center
01:09PM 18.5667 -65.2500 137° Southeast 310 357 8,400 -2,340 Descending San Juan Center
01:10PM 18.5000 -65.2167 155° Southeast 270 311 5,600 -2,700 Descending San Juan Center
01:11PM 18.4333 -65.2000 167° South 270 311 3,000 -1,320 Descending San Juan Center
01:12PM 18.3667 -65.1667 155° Southeast 250 288 3,000 -120 Level San Juan Center
01:13PM 18.3333 -65.1167 125° Southeast 190 219 2,800 -540 Descending San Juan Center
01:14PM 18.3333 -65.0833 90° East 160 184 2,000 -900 Descending San Juan Center
01:15PM 18.3167 -65.0333 109° East 140 161 1,100 -840 Descending San Juan Center
01:16PM 18.3333 -64.9833 71° East 130 150 400 -720 Descending San Juan Center